Pleasant Grove, California
Current Conditions -  °F | °C
As of 11:35 AM on Saturday 25 Oct 2014 (Local Time) from KLHM Reporting Station
Broken Clouds Broken Clouds  
Wind Chill: 61°   Ceiling: 2800
Heat Index: 61°   Visibility: 10mi
Dew Point: 54°   Wind: 14mph
Humidity: 77%   Direction: 130°SE
Pressure: 30.03"   Gusts: NA
Location:  38.82°N, 121.48°W
Report Text: KLHM 251835Z AUTO 13012KT 10SM BKN028 BKN050 BKN120 16/12 A3003 RMK AO1
Loading
Personal Weather Stations






























Interactive Weather Map New forecast layout! Learn more

10-Day Weather Forecast

Advertisements
Track Severe Weather on mobile